sensor_id;sensor_type;location;lat;lon;timestamp;P1;durP1;ratioP1;P2;durP2;ratioP2
27644;SDS011;15054;57.152;-2.118;2022-09-29T00:00:51;6.90;;;1.85;;
27644;SDS011;15054;57.152;-2.118;2022-09-29T00:03:19;5.30;;;1.50;;
27644;SDS011;15054;57.152;-2.118;2022-09-29T00:05:50;6.55;;;1.73;;
27644;SDS011;15054;57.152;-2.118;2022-09-29T00:08:19;3.80;;;1.80;;
27644;SDS011;15054;57.152;-2.118;2022-09-29T00:10:47;4.38;;;1.55;;
27644;SDS011;15054;57.152;-2.118;2022-09-29T00:13:15;4.15;;;1.65;;
27644;SDS011;15054;57.152;-2.118;2022-09-29T00:15:42;6.53;;;2.10;;
27644;SDS011;15054;57.152;-2.118;2022-09-29T00:18:10;5.60;;;1.50;;
27644;SDS011;15054;57.152;-2.118;2022-09-29T00:20:40;7.03;;;1.90;;
27644;SDS011;15054;57.152;-2.118;2022-09-29T00:23:07;10.60;;;1.95;;
27644;SDS011;15054;57.152;-2.118;2022-09-29T00:25:34;7.18;;;1.83;;
27644;SDS011;15054;57.152;-2.118;2022-09-29T00:28:01;2.83;;;1.65;;
27644;SDS011;15054;57.152;-2.118;2022-09-29T00:30:28;5.88;;;1.90;;
27644;SDS011;15054;57.152;-2.118;2022-09-29T00:32:55;6.10;;;1.65;;
27644;SDS011;15054;57.152;-2.118;2022-09-29T00:35:22;5.28;;;2.30;;
27644;SDS011;15054;57.152;-2.118;2022-09-29T00:37:49;4.30;;;1.70;;
27644;SDS011;15054;57.152;-2.118;2022-09-29T00:40:16;4.60;;;1.70;;
27644;SDS011;15054;57.152;-2.118;2022-09-29T00:42:44;6.28;;;1.55;;
27644;SDS011;15054;57.152;-2.118;2022-09-29T00:45:12;2.33;;;1.48;;
27644;SDS011;15054;57.152;-2.118;2022-09-29T00:47:40;6.60;;;2.10;;
27644;SDS011;15054;57.152;-2.118;2022-09-29T00:50:12;6.20;;;1.55;;
27644;SDS011;15054;57.152;-2.118;2022-09-29T00:52:49;3.65;;;1.48;;
27644;SDS011;15054;57.152;-2.118;2022-09-29T00:55:26;8.07;;;1.67;;
27644;SDS011;15054;57.152;-2.118;2022-09-29T00:58:04;5.25;;;2.00;;
27644;SDS011;15054;57.152;-2.118;2022-09-29T01:00:48;4.10;;;1.45;;
27644;SDS011;15054;57.152;-2.118;2022-09-29T01:03:16;4.47;;;1.60;;
27644;SDS011;15054;57.152;-2.118;2022-09-29T01:05:49;7.18;;;1.50;;
27644;SDS011;15054;57.152;-2.118;2022-09-29T01:08:40;3.97;;;1.77;;
27644;SDS011;15054;57.152;-2.118;2022-09-29T01:11:10;9.60;;;1.50;;
27644;SDS011;15054;57.152;-2.118;2022-09-29T01:13:41;5.15;;;1.50;;
27644;SDS011;15054;57.152;-2.118;2022-09-29T01:16:08;8.00;;;1.90;;
27644;SDS011;15054;57.152;-2.118;2022-09-29T01:18:35;4.97;;;1.83;;
27644;SDS011;15054;57.152;-2.118;2022-09-29T01:21:16;3.92;;;1.30;;
27644;SDS011;15054;57.152;-2.118;2022-09-29T01:37:13;3.78;;;1.17;;
27644;SDS011;15054;57.152;-2.118;2022-09-29T01:40:05;5.47;;;1.42;;
27644;SDS011;15054;57.152;-2.118;2022-09-29T01:42:51;7.22;;;1.58;;
27644;SDS011;15054;57.152;-2.118;2022-09-29T01:45:34;5.22;;;1.60;;
27644;SDS011;15054;57.152;-2.118;2022-09-29T01:48:12;4.50;;;1.48;;
27644;SDS011;15054;57.152;-2.118;2022-09-29T01:50:48;3.55;;;1.33;;
27644;SDS011;15054;57.152;-2.118;2022-09-29T01:53:20;4.43;;;1.88;;
27644;SDS011;15054;57.152;-2.118;2022-09-29T01:55:57;4.97;;;1.60;;
27644;SDS011;15054;57.152;-2.118;2022-09-29T01:58:30;6.53;;;1.95;;
27644;SDS011;15054;57.152;-2.118;2022-09-29T02:01:10;5.03;;;1.33;;
27644;SDS011;15054;57.152;-2.118;2022-09-29T02:03:40;5.35;;;1.90;;
27644;SDS011;15054;57.152;-2.118;2022-09-29T02:06:14;3.72;;;1.45;;
27644;SDS011;15054;57.152;-2.118;2022-09-29T02:08:48;9.73;;;2.30;;
27644;SDS011;15054;57.152;-2.118;2022-09-29T02:11:22;2.50;;;1.52;;
27644;SDS011;15054;57.152;-2.118;2022-09-29T02:16:37;6.10;;;1.65;;
27644;SDS011;15054;57.152;-2.118;2022-09-29T02:21:41;2.70;;;1.45;;
27644;SDS011;15054;57.152;-2.118;2022-09-29T02:24:12;5.18;;;2.67;;
27644;SDS011;15054;57.152;-2.118;2022-09-29T02:26:40;2.38;;;1.38;;
27644;SDS011;15054;57.152;-2.118;2022-09-29T02:29:08;6.85;;;1.65;;
27644;SDS011;15054;57.152;-2.118;2022-09-29T02:31:36;10.95;;;1.75;;
27644;SDS011;15054;57.152;-2.118;2022-09-29T02:34:04;4.25;;;1.65;;
27644;SDS011;15054;57.152;-2.118;2022-09-29T02:51:26;5.38;;;1.40;;
27644;SDS011;15054;57.152;-2.118;2022-09-29T02:59:23;6.80;;;2.20;;
27644;SDS011;15054;57.152;-2.118;2022-09-29T03:01:56;7.28;;;1.80;;
27644;SDS011;15054;57.152;-2.118;2022-09-29T03:04:24;2.58;;;1.50;;
27644;SDS011;15054;57.152;-2.118;2022-09-29T03:06:52;4.13;;;1.75;;
27644;SDS011;15054;57.152;-2.118;2022-09-29T03:09:20;8.50;;;2.25;;
27644;SDS011;15054;57.152;-2.118;2022-09-29T03:11:47;5.47;;;1.83;;
27644;SDS011;15054;57.152;-2.118;2022-09-29T03:14:14;5.90;;;1.83;;
27644;SDS011;15054;57.152;-2.118;2022-09-29T03:16:42;6.65;;;1.90;;
27644;SDS011;15054;57.152;-2.118;2022-09-29T03:19:09;6.90;;;2.05;;
27644;SDS011;15054;57.152;-2.118;2022-09-29T03:21:36;3.72;;;1.77;;
27644;SDS011;15054;57.152;-2.118;2022-09-29T03:24:04;3.47;;;1.67;;
27644;SDS011;15054;57.152;-2.118;2022-09-29T03:26:31;4.25;;;1.58;;
27644;SDS011;15054;57.152;-2.118;2022-09-29T03:28:59;4.05;;;1.58;;
27644;SDS011;15054;57.152;-2.118;2022-09-29T03:31:26;5.60;;;1.98;;
27644;SDS011;15054;57.152;-2.118;2022-09-29T03:33:53;4.32;;;1.70;;
27644;SDS011;15054;57.152;-2.118;2022-09-29T03:36:23;7.55;;;1.90;;
27644;SDS011;15054;57.152;-2.118;2022-09-29T03:38:50;3.83;;;2.15;;
27644;SDS011;15054;57.152;-2.118;2022-09-29T03:41:17;7.95;;;2.15;;
27644;SDS011;15054;57.152;-2.118;2022-09-29T03:43:44;5.72;;;2.15;;
27644;SDS011;15054;57.152;-2.118;2022-09-29T03:46:12;3.55;;;2.00;;
27644;SDS011;15054;57.152;-2.118;2022-09-29T03:48:39;5.72;;;3.03;;
27644;SDS011;15054;57.152;-2.118;2022-09-29T03:51:06;4.85;;;2.03;;
27644;SDS011;15054;57.152;-2.118;2022-09-29T03:53:34;4.68;;;2.22;;
27644;SDS011;15054;57.152;-2.118;2022-09-29T03:56:02;3.53;;;2.08;;
27644;SDS011;15054;57.152;-2.118;2022-09-29T03:58:29;5.05;;;2.05;;
27644;SDS011;15054;57.152;-2.118;2022-09-29T04:00:57;3.85;;;1.92;;
27644;SDS011;15054;57.152;-2.118;2022-09-29T04:03:24;3.22;;;2.10;;
27644;SDS011;15054;57.152;-2.118;2022-09-29T04:05:51;4.18;;;1.85;;
27644;SDS011;15054;57.152;-2.118;2022-09-29T04:08:18;2.20;;;1.73;;
27644;SDS011;15054;57.152;-2.118;2022-09-29T04:10:46;3.33;;;1.70;;
27644;SDS011;15054;57.152;-2.118;2022-09-29T04:13:13;3.30;;;1.80;;
27644;SDS011;15054;57.152;-2.118;2022-09-29T04:15:45;3.13;;;1.75;;
27644;SDS011;15054;57.152;-2.118;2022-09-29T04:18:15;4.28;;;2.08;;
27644;SDS011;15054;57.152;-2.118;2022-09-29T04:20:42;4.53;;;1.80;;
27644;SDS011;15054;57.152;-2.118;2022-09-29T04:23:10;5.90;;;2.05;;
27644;SDS011;15054;57.152;-2.118;2022-09-29T04:25:38;6.07;;;1.85;;
27644;SDS011;15054;57.152;-2.118;2022-09-29T04:28:05;3.97;;;2.13;;
27644;SDS011;15054;57.152;-2.118;2022-09-29T04:30:32;1.58;;;1.48;;
27644;SDS011;15054;57.152;-2.118;2022-09-29T04:32:59;6.55;;;2.50;;
27644;SDS011;15054;57.152;-2.118;2022-09-29T04:35:26;4.78;;;2.00;;
27644;SDS011;15054;57.152;-2.118;2022-09-29T04:37:54;6.80;;;2.10;;
27644;SDS011;15054;57.152;-2.118;2022-09-29T04:40:23;4.03;;;1.90;;
27644;SDS011;15054;57.152;-2.118;2022-09-29T04:42:50;5.97;;;2.00;;
27644;SDS011;15054;57.152;-2.118;2022-09-29T04:45:17;4.03;;;1.90;;
27644;SDS011;15054;57.152;-2.118;2022-09-29T04:47:44;3.42;;;2.00;;
27644;SDS011;15054;57.152;-2.118;2022-09-29T04:50:12;5.22;;;2.25;;
27644;SDS011;15054;57.152;-2.118;2022-09-29T04:52:40;4.53;;;1.95;;
27644;SDS011;15054;57.152;-2.118;2022-09-29T04:55:08;3.92;;;1.70;;
27644;SDS011;15054;57.152;-2.118;2022-09-29T04:57:37;3.33;;;1.80;;
27644;SDS011;15054;57.152;-2.118;2022-09-29T05:00:05;5.40;;;2.08;;
27644;SDS011;15054;57.152;-2.118;2022-09-29T05:02:34;4.18;;;1.98;;
27644;SDS011;15054;57.152;-2.118;2022-09-29T05:05:01;5.10;;;2.05;;
27644;SDS011;15054;57.152;-2.118;2022-09-29T05:07:29;3.72;;;1.90;;
27644;SDS011;15054;57.152;-2.118;2022-09-29T05:09:56;4.30;;;1.85;;
27644;SDS011;15054;57.152;-2.118;2022-09-29T05:12:23;7.57;;;1.90;;
27644;SDS011;15054;57.152;-2.118;2022-09-29T05:14:50;2.22;;;1.60;;
27644;SDS011;15054;57.152;-2.118;2022-09-29T05:17:17;7.75;;;2.53;;
27644;SDS011;15054;57.152;-2.118;2022-09-29T05:19:44;6.18;;;2.15;;
27644;SDS011;15054;57.152;-2.118;2022-09-29T05:22:11;4.13;;;1.52;;
27644;SDS011;15054;57.152;-2.118;2022-09-29T05:24:38;4.13;;;2.08;;
27644;SDS011;15054;57.152;-2.118;2022-09-29T05:27:05;3.63;;;1.80;;
27644;SDS011;15054;57.152;-2.118;2022-09-29T05:29:33;6.32;;;2.10;;
27644;SDS011;15054;57.152;-2.118;2022-09-29T05:32:00;7.35;;;2.10;;
27644;SDS011;15054;57.152;-2.118;2022-09-29T05:34:27;5.85;;;1.23;;
27644;SDS011;15054;57.152;-2.118;2022-09-29T05:36:54;7.63;;;2.13;;
27644;SDS011;15054;57.152;-2.118;2022-09-29T05:39:21;4.57;;;2.10;;
27644;SDS011;15054;57.152;-2.118;2022-09-29T05:41:49;4.20;;;1.83;;
27644;SDS011;15054;57.152;-2.118;2022-09-29T05:44:16;4.93;;;1.77;;
27644;SDS011;15054;57.152;-2.118;2022-09-29T05:46:43;6.85;;;2.70;;
27644;SDS011;15054;57.152;-2.118;2022-09-29T05:49:10;4.28;;;2.03;;
27644;SDS011;15054;57.152;-2.118;2022-09-29T05:51:37;4.00;;;1.90;;
27644;SDS011;15054;57.152;-2.118;2022-09-29T05:54:04;7.90;;;2.03;;
27644;SDS011;15054;57.152;-2.118;2022-09-29T05:56:31;10.00;;;2.63;;
27644;SDS011;15054;57.152;-2.118;2022-09-29T05:58:58;8.32;;;2.33;;
27644;SDS011;15054;57.152;-2.118;2022-09-29T06:01:27;4.40;;;1.85;;
27644;SDS011;15054;57.152;-2.118;2022-09-29T06:03:54;5.95;;;1.90;;
27644;SDS011;15054;57.152;-2.118;2022-09-29T06:06:23;5.85;;;2.15;;
27644;SDS011;15054;57.152;-2.118;2022-09-29T06:08:52;2.15;;;1.73;;
27644;SDS011;15054;57.152;-2.118;2022-09-29T06:11:26;5.53;;;1.80;;
27644;SDS011;15054;57.152;-2.118;2022-09-29T06:13:55;5.03;;;2.45;;
27644;SDS011;15054;57.152;-2.118;2022-09-29T06:16:23;2.70;;;1.90;;
27644;SDS011;15054;57.152;-2.118;2022-09-29T06:18:52;6.65;;;2.50;;
27644;SDS011;15054;57.152;-2.118;2022-09-29T06:21:20;6.72;;;1.98;;
27644;SDS011;15054;57.152;-2.118;2022-09-29T06:23:52;2.78;;;1.98;;
27644;SDS011;15054;57.152;-2.118;2022-09-29T06:26:21;3.90;;;2.08;;
27644;SDS011;15054;57.152;-2.118;2022-09-29T06:28:50;4.43;;;2.03;;
27644;SDS011;15054;57.152;-2.118;2022-09-29T06:31:19;3.10;;;2.00;;
27644;SDS011;15054;57.152;-2.118;2022-09-29T06:33:48;5.30;;;2.60;;
27644;SDS011;15054;57.152;-2.118;2022-09-29T06:39:04;5.10;;;2.70;;
27644;SDS011;15054;57.152;-2.118;2022-09-29T06:41:32;6.22;;;2.22;;
27644;SDS011;15054;57.152;-2.118;2022-09-29T06:44:00;8.10;;;2.10;;
27644;SDS011;15054;57.152;-2.118;2022-09-29T06:46:28;3.38;;;1.90;;
27644;SDS011;15054;57.152;-2.118;2022-09-29T06:48:55;4.20;;;1.95;;
27644;SDS011;15054;57.152;-2.118;2022-09-29T06:51:22;3.75;;;1.80;;
27644;SDS011;15054;57.152;-2.118;2022-09-29T06:54:06;4.30;;;2.13;;
27644;SDS011;15054;57.152;-2.118;2022-09-29T06:56:37;2.63;;;2.13;;
27644;SDS011;15054;57.152;-2.118;2022-09-29T06:59:05;4.07;;;2.20;;
27644;SDS011;15054;57.152;-2.118;2022-09-29T07:01:33;2.22;;;2.00;;
27644;SDS011;15054;57.152;-2.118;2022-09-29T07:04:00;4.97;;;2.42;;
27644;SDS011;15054;57.152;-2.118;2022-09-29T07:06:28;4.07;;;2.20;;
27644;SDS011;15054;57.152;-2.118;2022-09-29T07:08:56;5.95;;;2.15;;
27644;SDS011;15054;57.152;-2.118;2022-09-29T07:11:25;3.03;;;1.75;;
27644;SDS011;15054;57.152;-2.118;2022-09-29T07:13:53;3.65;;;2.05;;
27644;SDS011;15054;57.152;-2.118;2022-09-29T07:16:20;2.83;;;2.20;;
27644;SDS011;15054;57.152;-2.118;2022-09-29T07:18:51;5.38;;;2.35;;
27644;SDS011;15054;57.152;-2.118;2022-09-29T07:21:19;5.63;;;1.88;;
27644;SDS011;15054;57.152;-2.118;2022-09-29T07:23:47;4.55;;;1.85;;
27644;SDS011;15054;57.152;-2.118;2022-09-29T07:26:15;1.90;;;1.77;;
27644;SDS011;15054;57.152;-2.118;2022-09-29T07:28:43;3.22;;;2.00;;
27644;SDS011;15054;57.152;-2.118;2022-09-29T07:31:13;4.70;;;2.22;;
27644;SDS011;15054;57.152;-2.118;2022-09-29T07:33:42;3.92;;;2.00;;
27644;SDS011;15054;57.152;-2.118;2022-09-29T07:36:11;3.45;;;2.40;;
27644;SDS011;15054;57.152;-2.118;2022-09-29T07:38:39;2.58;;;1.77;;
27644;SDS011;15054;57.152;-2.118;2022-09-29T07:41:07;4.13;;;2.63;;
27644;SDS011;15054;57.152;-2.118;2022-09-29T07:43:37;5.22;;;2.67;;
27644;SDS011;15054;57.152;-2.118;2022-09-29T07:46:05;4.68;;;2.20;;
27644;SDS011;15054;57.152;-2.118;2022-09-29T07:48:33;7.28;;;2.60;;
27644;SDS011;15054;57.152;-2.118;2022-09-29T07:51:20;4.55;;;2.00;;
27644;SDS011;15054;57.152;-2.118;2022-09-29T07:53:47;3.67;;;1.77;;
27644;SDS011;15054;57.152;-2.118;2022-09-29T07:56:15;2.38;;;1.90;;
27644;SDS011;15054;57.152;-2.118;2022-09-29T07:58:44;4.38;;;1.90;;
27644;SDS011;15054;57.152;-2.118;2022-09-29T08:01:13;3.83;;;1.88;;
27644;SDS011;15054;57.152;-2.118;2022-09-29T08:03:42;4.38;;;2.38;;
27644;SDS011;15054;57.152;-2.118;2022-09-29T08:06:14;2.28;;;1.83;;
27644;SDS011;15054;57.152;-2.118;2022-09-29T08:08:42;4.97;;;1.90;;
27644;SDS011;15054;57.152;-2.118;2022-09-29T08:11:25;2.38;;;2.17;;
27644;SDS011;15054;57.152;-2.118;2022-09-29T08:13:57;3.88;;;1.73;;
27644;SDS011;15054;57.152;-2.118;2022-09-29T08:16:25;3.05;;;2.40;;
27644;SDS011;15054;57.152;-2.118;2022-09-29T08:18:52;5.13;;;2.10;;
27644;SDS011;15054;57.152;-2.118;2022-09-29T08:21:19;3.38;;;1.50;;
27644;SDS011;15054;57.152;-2.118;2022-09-29T08:23:46;3.22;;;2.00;;
27644;SDS011;15054;57.152;-2.118;2022-09-29T08:26:15;5.85;;;1.90;;
27644;SDS011;15054;57.152;-2.118;2022-09-29T08:28:48;4.55;;;2.13;;
27644;SDS011;15054;57.152;-2.118;2022-09-29T08:31:32;5.72;;;2.20;;
27644;SDS011;15054;57.152;-2.118;2022-09-29T08:33:59;3.60;;;1.90;;
27644;SDS011;15054;57.152;-2.118;2022-09-29T08:36:26;5.00;;;1.92;;
27644;SDS011;15054;57.152;-2.118;2022-09-29T08:38:55;1.95;;;1.52;;
27644;SDS011;15054;57.152;-2.118;2022-09-29T08:43:56;5.45;;;2.15;;
27644;SDS011;15054;57.152;-2.118;2022-09-29T08:49:17;3.55;;;1.85;;
27644;SDS011;15054;57.152;-2.118;2022-09-29T08:52:05;4.38;;;2.45;;
27644;SDS011;15054;57.152;-2.118;2022-09-29T08:54:44;3.72;;;2.05;;
27644;SDS011;15054;57.152;-2.118;2022-09-29T08:57:16;4.03;;;2.15;;
27644;SDS011;15054;57.152;-2.118;2022-09-29T08:59:52;3.20;;;1.98;;
27644;SDS011;15054;57.152;-2.118;2022-09-29T09:11:10;3.05;;;1.70;;
27644;SDS011;15054;57.152;-2.118;2022-09-29T09:16:42;6.13;;;2.13;;
27644;SDS011;15054;57.152;-2.118;2022-09-29T09:22:24;8.20;;;1.85;;
27644;SDS011;15054;57.152;-2.118;2022-09-29T09:27:41;5.22;;;1.95;;
27644;SDS011;15054;57.152;-2.118;2022-09-29T09:30:12;5.57;;;2.35;;
27644;SDS011;15054;57.152;-2.118;2022-09-29T09:32:46;1.75;;;1.60;;
27644;SDS011;15054;57.152;-2.118;2022-09-29T09:35:24;2.85;;;1.50;;
27644;SDS011;15054;57.152;-2.118;2022-09-29T09:37:55;1.52;;;1.30;;
27644;SDS011;15054;57.152;-2.118;2022-09-29T09:40:28;3.22;;;1.80;;
27644;SDS011;15054;57.152;-2.118;2022-09-29T09:43:05;1.73;;;1.60;;
27644;SDS011;15054;57.152;-2.118;2022-09-29T09:48:13;2.92;;;2.15;;
27644;SDS011;15054;57.152;-2.118;2022-09-29T09:50:50;2.00;;;1.75;;
27644;SDS011;15054;57.152;-2.118;2022-09-29T09:53:25;2.35;;;1.50;;
27644;SDS011;15054;57.152;-2.118;2022-09-29T09:59:08;3.08;;;1.90;;
27644;SDS011;15054;57.152;-2.118;2022-09-29T10:01:38;3.33;;;1.73;;
27644;SDS011;15054;57.152;-2.118;2022-09-29T10:04:07;4.15;;;1.90;;
27644;SDS011;15054;57.152;-2.118;2022-09-29T10:06:38;3.75;;;2.08;;
27644;SDS011;15054;57.152;-2.118;2022-09-29T10:09:08;2.72;;;1.70;;
27644;SDS011;15054;57.152;-2.118;2022-09-29T10:11:39;4.40;;;2.00;;
27644;SDS011;15054;57.152;-2.118;2022-09-29T10:16:36;4.10;;;2.30;;
27644;SDS011;15054;57.152;-2.118;2022-09-29T10:19:12;2.08;;;1.98;;
27644;SDS011;15054;57.152;-2.118;2022-09-29T10:21:41;2.33;;;1.88;;
27644;SDS011;15054;57.152;-2.118;2022-09-29T10:24:20;2.58;;;1.90;;
27644;SDS011;15054;57.152;-2.118;2022-09-29T10:26:57;3.20;;;2.70;;
27644;SDS011;15054;57.152;-2.118;2022-09-29T10:29:31;2.08;;;1.88;;
27644;SDS011;15054;57.152;-2.118;2022-09-29T10:34:43;2.75;;;1.52;;
27644;SDS011;15054;57.152;-2.118;2022-09-29T10:37:22;1.33;;;1.23;;
27644;SDS011;15054;57.152;-2.118;2022-09-29T10:40:12;1.40;;;1.30;;
27644;SDS011;15054;57.152;-2.118;2022-09-29T10:42:44;1.92;;;1.63;;
27644;SDS011;15054;57.152;-2.118;2022-09-29T10:45:14;2.70;;;1.83;;
27644;SDS011;15054;57.152;-2.118;2022-09-29T10:50:34;1.90;;;1.30;;
27644;SDS011;15054;57.152;-2.118;2022-09-29T10:53:05;1.50;;;1.40;;
27644;SDS011;15054;57.152;-2.118;2022-09-29T10:56:00;2.35;;;1.30;;
27644;SDS011;15054;57.152;-2.118;2022-09-29T10:58:35;1.60;;;1.50;;
27644;SDS011;15054;57.152;-2.118;2022-09-29T11:01:27;2.13;;;1.50;;
27644;SDS011;15054;57.152;-2.118;2022-09-29T11:03:58;2.67;;;1.40;;
27644;SDS011;15054;57.152;-2.118;2022-09-29T11:06:33;2.78;;;1.88;;
27644;SDS011;15054;57.152;-2.118;2022-09-29T11:14:24;2.65;;;2.00;;
27644;SDS011;15054;57.152;-2.118;2022-09-29T11:17:29;2.20;;;2.08;;
27644;SDS011;15054;57.152;-2.118;2022-09-29T11:20:04;2.58;;;1.85;;
27644;SDS011;15054;57.152;-2.118;2022-09-29T11:36:46;3.03;;;2.03;;
27644;SDS011;15054;57.152;-2.118;2022-09-29T11:44:59;2.25;;;1.70;;
27644;SDS011;15054;57.152;-2.118;2022-09-29T11:47:41;2.10;;;1.90;;
27644;SDS011;15054;57.152;-2.118;2022-09-29T11:50:36;3.92;;;1.60;;
27644;SDS011;15054;57.152;-2.118;2022-09-29T11:59:09;2.55;;;1.42;;
27644;SDS011;15054;57.152;-2.118;2022-09-29T12:01:41;3.17;;;1.70;;
27644;SDS011;15054;57.152;-2.118;2022-09-29T12:04:22;3.10;;;2.03;;
27644;SDS011;15054;57.152;-2.118;2022-09-29T12:10:18;1.85;;;1.75;;
27644;SDS011;15054;57.152;-2.118;2022-09-29T12:18:26;4.90;;;2.22;;
27644;SDS011;15054;57.152;-2.118;2022-09-29T12:20:57;3.88;;;2.15;;
27644;SDS011;15054;57.152;-2.118;2022-09-29T12:23:26;6.57;;;2.58;;
27644;SDS011;15054;57.152;-2.118;2022-09-29T12:26:18;4.70;;;2.97;;
27644;SDS011;15054;57.152;-2.118;2022-09-29T12:28:49;9.13;;;2.88;;
27644;SDS011;15054;57.152;-2.118;2022-09-29T12:34:02;3.95;;;2.78;;
27644;SDS011;15054;57.152;-2.118;2022-09-29T12:36:44;3.08;;;2.53;;
27644;SDS011;15054;57.152;-2.118;2022-09-29T12:39:45;4.88;;;2.90;;
27644;SDS011;15054;57.152;-2.118;2022-09-29T12:45:21;5.30;;;2.58;;
27644;SDS011;15054;57.152;-2.118;2022-09-29T12:51:11;6.80;;;2.90;;
27644;SDS011;15054;57.152;-2.118;2022-09-29T12:54:08;5.05;;;2.55;;
27644;SDS011;15054;57.152;-2.118;2022-09-29T13:02:07;4.55;;;2.50;;
27644;SDS011;15054;57.152;-2.118;2022-09-29T13:21:38;3.03;;;2.60;;
27644;SDS011;15054;57.152;-2.118;2022-09-29T13:24:29;2.95;;;2.28;;
27644;SDS011;15054;57.152;-2.118;2022-09-29T13:27:27;3.03;;;2.28;;
27644;SDS011;15054;57.152;-2.118;2022-09-29T13:35:39;6.88;;;3.30;;
27644;SDS011;15054;57.152;-2.118;2022-09-29T13:38:42;6.53;;;2.70;;
27644;SDS011;15054;57.152;-2.118;2022-09-29T13:43:39;3.35;;;2.15;;
27644;SDS011;15054;57.152;-2.118;2022-09-29T13:51:47;5.13;;;3.65;;
27644;SDS011;15054;57.152;-2.118;2022-09-29T13:54:21;4.55;;;2.83;;
27644;SDS011;15054;57.152;-2.118;2022-09-29T13:59:44;4.47;;;2.75;;
27644;SDS011;15054;57.152;-2.118;2022-09-29T14:02:34;4.68;;;3.10;;
27644;SDS011;15054;57.152;-2.118;2022-09-29T14:05:51;5.10;;;3.70;;
27644;SDS011;15054;57.152;-2.118;2022-09-29T14:10:43;6.18;;;2.53;;
27644;SDS011;15054;57.152;-2.118;2022-09-29T14:13:27;3.33;;;2.88;;
27644;SDS011;15054;57.152;-2.118;2022-09-29T14:16:10;3.17;;;2.58;;
27644;SDS011;15054;57.152;-2.118;2022-09-29T14:18:53;4.60;;;2.17;;
27644;SDS011;15054;57.152;-2.118;2022-09-29T14:21:48;4.32;;;2.53;;
27644;SDS011;15054;57.152;-2.118;2022-09-29T14:35:29;2.70;;;2.30;;
27644;SDS011;15054;57.152;-2.118;2022-09-29T14:38:23;4.60;;;2.50;;
27644;SDS011;15054;57.152;-2.118;2022-09-29T14:43:35;3.35;;;2.42;;
27644;SDS011;15054;57.152;-2.118;2022-09-29T15:01:28;5.40;;;3.42;;
27644;SDS011;15054;57.152;-2.118;2022-09-29T15:04:04;6.15;;;3.33;;
27644;SDS011;15054;57.152;-2.118;2022-09-29T15:06:32;3.38;;;2.97;;
27644;SDS011;15054;57.152;-2.118;2022-09-29T15:09:01;3.38;;;3.05;;
27644;SDS011;15054;57.152;-2.118;2022-09-29T15:11:42;5.75;;;3.25;;
27644;SDS011;15054;57.152;-2.118;2022-09-29T15:14:30;5.55;;;2.90;;
27644;SDS011;15054;57.152;-2.118;2022-09-29T15:27:54;5.00;;;3.17;;
27644;SDS011;15054;57.152;-2.118;2022-09-29T15:30:29;5.35;;;3.00;;
27644;SDS011;15054;57.152;-2.118;2022-09-29T15:33:34;3.78;;;2.88;;
27644;SDS011;15054;57.152;-2.118;2022-09-29T15:36:03;4.55;;;3.15;;
27644;SDS011;15054;57.152;-2.118;2022-09-29T15:38:39;3.83;;;2.58;;
27644;SDS011;15054;57.152;-2.118;2022-09-29T15:43:40;5.22;;;3.10;;
27644;SDS011;15054;57.152;-2.118;2022-09-29T15:46:20;3.58;;;2.92;;
27644;SDS011;15054;57.152;-2.118;2022-09-29T15:51:44;3.83;;;3.25;;
27644;SDS011;15054;57.152;-2.118;2022-09-29T15:54:22;3.75;;;2.53;;
27644;SDS011;15054;57.152;-2.118;2022-09-29T15:56:51;7.35;;;4.30;;
27644;SDS011;15054;57.152;-2.118;2022-09-29T15:59:46;3.97;;;2.97;;
27644;SDS011;15054;57.152;-2.118;2022-09-29T16:02:24;3.92;;;2.80;;
27644;SDS011;15054;57.152;-2.118;2022-09-29T16:05:00;3.75;;;2.90;;
27644;SDS011;15054;57.152;-2.118;2022-09-29T16:07:34;4.07;;;2.97;;
27644;SDS011;15054;57.152;-2.118;2022-09-29T16:10:15;3.67;;;2.60;;
27644;SDS011;15054;57.152;-2.118;2022-09-29T16:13:00;3.92;;;2.67;;
27644;SDS011;15054;57.152;-2.118;2022-09-29T16:15:34;3.50;;;3.20;;
27644;SDS011;15054;57.152;-2.118;2022-09-29T16:18:08;2.60;;;2.40;;
27644;SDS011;15054;57.152;-2.118;2022-09-29T16:21:09;2.90;;;2.67;;
27644;SDS011;15054;57.152;-2.118;2022-09-29T16:23:48;2.47;;;2.28;;
27644;SDS011;15054;57.152;-2.118;2022-09-29T16:31:39;5.63;;;3.22;;
27644;SDS011;15054;57.152;-2.118;2022-09-29T16:34:30;6.22;;;3.90;;
27644;SDS011;15054;57.152;-2.118;2022-09-29T16:42:16;6.57;;;3.30;;
27644;SDS011;15054;57.152;-2.118;2022-09-29T16:44:51;7.88;;;4.40;;
27644;SDS011;15054;57.152;-2.118;2022-09-29T16:49:51;5.15;;;4.65;;
27644;SDS011;15054;57.152;-2.118;2022-09-29T16:57:48;6.05;;;4.30;;
27644;SDS011;15054;57.152;-2.118;2022-09-29T17:00:26;4.30;;;3.83;;
27644;SDS011;15054;57.152;-2.118;2022-09-29T17:02:54;11.30;;;4.78;;
27644;SDS011;15054;57.152;-2.118;2022-09-29T17:05:23;4.22;;;3.70;;
27644;SDS011;15054;57.152;-2.118;2022-09-29T17:08:26;6.47;;;4.50;;
27644;SDS011;15054;57.152;-2.118;2022-09-29T17:10:48;7.93;;;4.25;;
27644;SDS011;15054;57.152;-2.118;2022-09-29T17:13:21;5.95;;;4.38;;
27644;SDS011;15054;57.152;-2.118;2022-09-29T17:15:50;6.32;;;4.20;;
27644;SDS011;15054;57.152;-2.118;2022-09-29T17:18:18;7.65;;;3.90;;
27644;SDS011;15054;57.152;-2.118;2022-09-29T17:20:47;6.68;;;4.72;;
27644;SDS011;15054;57.152;-2.118;2022-09-29T17:23:14;6.00;;;4.50;;
27644;SDS011;15054;57.152;-2.118;2022-09-29T17:25:42;7.95;;;4.47;;
27644;SDS011;15054;57.152;-2.118;2022-09-29T17:28:15;5.65;;;4.15;;
27644;SDS011;15054;57.152;-2.118;2022-09-29T17:30:52;6.07;;;4.40;;
27644;SDS011;15054;57.152;-2.118;2022-09-29T17:33:21;10.10;;;4.25;;
27644;SDS011;15054;57.152;-2.118;2022-09-29T17:35:49;6.38;;;4.72;;
27644;SDS011;15054;57.152;-2.118;2022-09-29T17:38:21;6.53;;;5.38;;
27644;SDS011;15054;57.152;-2.118;2022-09-29T17:40:59;5.53;;;4.38;;
27644;SDS011;15054;57.152;-2.118;2022-09-29T17:43:29;5.63;;;4.55;;
27644;SDS011;15054;57.152;-2.118;2022-09-29T17:45:57;7.38;;;4.80;;
27644;SDS011;15054;57.152;-2.118;2022-09-29T17:48:26;8.80;;;5.78;;
27644;SDS011;15054;57.152;-2.118;2022-09-29T17:50:54;7.45;;;4.70;;
27644;SDS011;15054;57.152;-2.118;2022-09-29T17:53:24;5.65;;;4.90;;
27644;SDS011;15054;57.152;-2.118;2022-09-29T17:55:52;8.15;;;4.88;;
27644;SDS011;15054;57.152;-2.118;2022-09-29T17:58:21;8.50;;;4.63;;
27644;SDS011;15054;57.152;-2.118;2022-09-29T18:00:50;5.40;;;4.38;;
27644;SDS011;15054;57.152;-2.118;2022-09-29T18:03:18;8.50;;;4.97;;
27644;SDS011;15054;57.152;-2.118;2022-09-29T18:05:47;8.15;;;5.30;;
27644;SDS011;15054;57.152;-2.118;2022-09-29T18:08:22;5.20;;;4.70;;
27644;SDS011;15054;57.152;-2.118;2022-09-29T18:10:58;4.93;;;4.40;;
27644;SDS011;15054;57.152;-2.118;2022-09-29T18:13:27;7.15;;;4.28;;
27644;SDS011;15054;57.152;-2.118;2022-09-29T18:15:57;6.65;;;5.22;;
27644;SDS011;15054;57.152;-2.118;2022-09-29T18:18:25;6.95;;;4.70;;
27644;SDS011;15054;57.152;-2.118;2022-09-29T18:20:52;5.53;;;4.60;;
27644;SDS011;15054;57.152;-2.118;2022-09-29T18:23:20;5.68;;;5.18;;
27644;SDS011;15054;57.152;-2.118;2022-09-29T18:25:50;5.63;;;4.43;;
27644;SDS011;15054;57.152;-2.118;2022-09-29T18:28:18;5.65;;;4.75;;
27644;SDS011;15054;57.152;-2.118;2022-09-29T18:30:46;6.13;;;5.60;;
27644;SDS011;15054;57.152;-2.118;2022-09-29T18:33:16;6.10;;;5.25;;
27644;SDS011;15054;57.152;-2.118;2022-09-29T18:35:46;6.97;;;4.85;;
27644;SDS011;15054;57.152;-2.118;2022-09-29T18:38:18;6.40;;;4.72;;
27644;SDS011;15054;57.152;-2.118;2022-09-29T18:40:45;6.40;;;5.05;;
27644;SDS011;15054;57.152;-2.118;2022-09-29T18:43:12;6.30;;;5.50;;
27644;SDS011;15054;57.152;-2.118;2022-09-29T18:45:40;5.57;;;5.07;;
27644;SDS011;15054;57.152;-2.118;2022-09-29T18:48:11;5.07;;;4.55;;
27644;SDS011;15054;57.152;-2.118;2022-09-29T18:50:40;5.63;;;5.00;;
27644;SDS011;15054;57.152;-2.118;2022-09-29T18:53:10;7.80;;;5.47;;
27644;SDS011;15054;57.152;-2.118;2022-09-29T18:55:38;7.22;;;5.80;;